sensor_id;sensor_type;location;lat;lon;timestamp;pressure;altitude;pressure_sealevel;temperature;humidity
66664;BME280;59683;51.428;-1.994;2023-05-12T06:17:01;101477.03;;;9.70;100.00
66664;BME280;59683;51.428;-1.994;2023-05-12T06:22:11;101489.22;;;9.87;100.00
66664;BME280;59683;51.428;-1.994;2023-05-12T06:24:36;101485.53;;;9.89;100.00
66664;BME280;59683;51.428;-1.994;2023-05-12T06:27:15;101482.91;;;9.89;100.00
66664;BME280;59683;51.428;-1.994;2023-05-12T06:29:41;101491.75;;;9.88;100.00
66664;BME280;59683;51.428;-1.994;2023-05-12T06:32:07;101493.00;;;9.97;100.00
66664;BME280;59683;51.428;-1.994;2023-05-12T06:34:32;101493.00;;;9.97;100.00
66664;BME280;59683;51.428;-1.994;2023-05-12T06:36:57;101501.09;;;10.08;100.00
66664;BME280;59683;51.428;-1.994;2023-05-12T06:39:23;101496.66;;;10.09;100.00
66664;BME280;59683;51.428;-1.994;2023-05-12T06:41:48;101503.81;;;10.07;100.00
66664;BME280;59683;51.428;-1.994;2023-05-12T06:44:14;101503.09;;;10.05;100.00
66664;BME280;59683;51.428;-1.994;2023-05-12T06:58:43;101520.25;;;10.26;100.00
66664;BME280;59683;51.428;-1.994;2023-05-12T07:01:08;101522.13;;;10.38;100.00
66664;BME280;59683;51.428;-1.994;2023-05-12T07:03:34;101518.41;;;10.41;100.00
66664;BME280;59683;51.428;-1.994;2023-05-12T07:05:59;101530.88;;;10.53;100.00
66664;BME280;59683;51.428;-1.994;2023-05-12T07:08:25;101523.63;;;10.69;100.00
66664;BME280;59683;51.428;-1.994;2023-05-12T07:10:50;101529.22;;;10.92;100.00
66664;BME280;59683;51.428;-1.994;2023-05-12T07:13:16;101526.03;;;11.00;100.00
66664;BME280;59683;51.428;-1.994;2023-05-12T07:15:41;101516.41;;;10.99;100.00
66664;BME280;59683;51.428;-1.994;2023-05-12T07:18:07;101509.50;;;11.09;100.00
66664;BME280;59683;51.428;-1.994;2023-05-12T07:20:32;101510.84;;;11.29;100.00
66664;BME280;59683;51.428;-1.994;2023-05-12T07:22:58;101494.28;;;11.38;100.00
66664;BME280;59683;51.428;-1.994;2023-05-12T07:25:23;101499.03;;;11.58;100.00
66664;BME280;59683;51.428;-1.994;2023-05-12T07:27:48;101487.16;;;11.77;100.00
66664;BME280;59683;51.428;-1.994;2023-05-12T07:30:14;101477.84;;;11.84;100.00
66664;BME280;59683;51.428;-1.994;2023-05-12T07:32:40;101490.09;;;12.10;100.00
66664;BME280;59683;51.428;-1.994;2023-05-12T07:35:07;101488.59;;;12.06;100.00
66664;BME280;59683;51.428;-1.994;2023-05-12T07:37:33;101496.31;;;12.22;100.00
66664;BME280;59683;51.428;-1.994;2023-05-12T07:39:59;101495.59;;;12.20;100.00
66664;BME280;59683;51.428;-1.994;2023-05-12T07:42:24;101490.69;;;12.27;100.00
66664;BME280;59683;51.428;-1.994;2023-05-12T07:44:49;101498.53;;;12.28;100.00
66664;BME280;59683;51.428;-1.994;2023-05-12T07:47:15;101496.22;;;12.24;100.00
66664;BME280;59683;51.428;-1.994;2023-05-12T07:49:40;101495.78;;;12.30;100.00
66664;BME280;59683;51.428;-1.994;2023-05-12T07:52:06;101504.41;;;12.45;100.00
66664;BME280;59683;51.428;-1.994;2023-05-12T07:54:31;101500.53;;;12.37;100.00
66664;BME280;59683;51.428;-1.994;2023-05-12T07:56:57;101503.34;;;12.47;100.00
66664;BME280;59683;51.428;-1.994;2023-05-12T07:59:22;101506.34;;;12.43;100.00
66664;BME280;59683;51.428;-1.994;2023-05-12T08:01:48;101497.03;;;12.96;100.00
66664;BME280;59683;51.428;-1.994;2023-05-12T08:04:13;101496.72;;;13.81;100.00
66664;BME280;59683;51.428;-1.994;2023-05-12T08:06:39;101486.38;;;14.65;100.00
66664;BME280;59683;51.428;-1.994;2023-05-12T08:09:04;101494.63;;;15.36;100.00
66664;BME280;59683;51.428;-1.994;2023-05-12T08:11:30;101483.75;;;15.27;100.00
66664;BME280;59683;51.428;-1.994;2023-05-12T08:13:56;101486.22;;;15.19;100.00
66664;BME280;59683;51.428;-1.994;2023-05-12T08:16:21;101492.53;;;15.18;100.00
66664;BME280;59683;51.428;-1.994;2023-05-12T08:18:47;101486.09;;;15.00;100.00
66664;BME280;59683;51.428;-1.994;2023-05-12T08:21:12;101482.75;;;14.66;100.00
66664;BME280;59683;51.428;-1.994;2023-05-12T08:23:38;101482.44;;;14.37;100.00
66664;BME280;59683;51.428;-1.994;2023-05-12T08:26:03;101486.72;;;14.17;100.00
66664;BME280;59683;51.428;-1.994;2023-05-12T08:28:29;101489.44;;;13.83;100.00
66664;BME280;59683;51.428;-1.994;2023-05-12T08:30:56;101486.44;;;14.42;100.00
66664;BME280;59683;51.428;-1.994;2023-05-12T08:33:21;101483.50;;;15.10;100.00
66664;BME280;59683;51.428;-1.994;2023-05-12T08:35:47;101488.13;;;15.59;100.00
66664;BME280;59683;51.428;-1.994;2023-05-12T08:38:12;101492.69;;;16.97;100.00
66664;BME280;59683;51.428;-1.994;2023-05-12T08:40:46;101497.81;;;17.38;100.00
66664;BME280;59683;51.428;-1.994;2023-05-12T08:43:25;101494.47;;;17.63;100.00
66664;BME280;59683;51.428;-1.994;2023-05-12T08:45:55;101498.41;;;17.69;100.00
66664;BME280;59683;51.428;-1.994;2023-05-12T08:48:26;101486.81;;;17.88;100.00
66664;BME280;59683;51.428;-1.994;2023-05-12T08:50:53;101489.94;;;17.83;100.00
66664;BME280;59683;51.428;-1.994;2023-05-12T08:53:20;101485.50;;;18.19;100.00
66664;BME280;59683;51.428;-1.994;2023-05-12T08:55:46;101495.03;;;18.32;100.00
66664;BME280;59683;51.428;-1.994;2023-05-12T08:58:13;101492.84;;;18.17;100.00
66664;BME280;59683;51.428;-1.994;2023-05-12T09:00:39;101489.25;;;18.27;100.00
66664;BME280;59683;51.428;-1.994;2023-05-12T09:03:05;101492.53;;;18.66;100.00
66664;BME280;59683;51.428;-1.994;2023-05-12T09:05:31;101486.81;;;18.69;100.00
66664;BME280;59683;51.428;-1.994;2023-05-12T09:07:58;101498.13;;;18.27;100.00
66664;BME280;59683;51.428;-1.994;2023-05-12T09:10:26;101501.22;;;17.77;100.00
66664;BME280;59683;51.428;-1.994;2023-05-12T09:12:54;101505.63;;;17.59;100.00
66664;BME280;59683;51.428;-1.994;2023-05-12T09:15:26;101509.50;;;17.37;100.00
66664;BME280;59683;51.428;-1.994;2023-05-12T09:17:53;101494.09;;;17.95;100.00
66664;BME280;59683;51.428;-1.994;2023-05-12T09:20:19;101491.38;;;18.51;100.00
66664;BME280;59683;51.428;-1.994;2023-05-12T09:22:44;101499.41;;;18.68;100.00
66664;BME280;59683;51.428;-1.994;2023-05-12T09:25:17;101501.03;;;19.41;100.00
66664;BME280;59683;51.428;-1.994;2023-05-12T09:27:52;101500.72;;;20.12;100.00
66664;BME280;59683;51.428;-1.994;2023-05-12T09:30:28;101497.06;;;19.79;100.00
66664;BME280;59683;51.428;-1.994;2023-05-12T09:33:04;101501.91;;;19.50;100.00
66664;BME280;59683;51.428;-1.994;2023-05-12T09:35:29;101497.78;;;19.11;100.00
66664;BME280;59683;51.428;-1.994;2023-05-12T09:37:55;101503.88;;;18.96;100.00
66664;BME280;59683;51.428;-1.994;2023-05-12T09:40:20;101498.44;;;19.31;100.00
66664;BME280;59683;51.428;-1.994;2023-05-12T09:42:45;101502.38;;;19.45;100.00
66664;BME280;59683;51.428;-1.994;2023-05-12T09:45:13;101503.09;;;19.03;100.00
66664;BME280;59683;51.428;-1.994;2023-05-12T09:47:39;101499.44;;;18.23;100.00
66664;BME280;59683;51.428;-1.994;2023-05-12T09:50:06;101498.66;;;18.13;100.00
66664;BME280;59683;51.428;-1.994;2023-05-12T09:52:37;101503.16;;;17.85;100.00
66664;BME280;59683;51.428;-1.994;2023-05-12T09:55:07;101518.38;;;17.75;100.00
66664;BME280;59683;51.428;-1.994;2023-05-12T09:57:43;101521.13;;;17.55;100.00
66664;BME280;59683;51.428;-1.994;2023-05-12T10:00:11;101509.69;;;17.63;100.00
66664;BME280;59683;51.428;-1.994;2023-05-12T10:02:41;101513.72;;;17.49;100.00
66664;BME280;59683;51.428;-1.994;2023-05-12T10:05:13;101517.59;;;17.64;100.00
66664;BME280;59683;51.428;-1.994;2023-05-12T10:07:41;101514.75;;;18.76;100.00
66664;BME280;59683;51.428;-1.994;2023-05-12T10:10:10;101514.53;;;19.83;100.00
66664;BME280;59683;51.428;-1.994;2023-05-12T10:12:39;101509.47;;;19.54;100.00
66664;BME280;59683;51.428;-1.994;2023-05-12T10:15:08;101509.34;;;19.30;100.00
66664;BME280;59683;51.428;-1.994;2023-05-12T10:17:35;101516.50;;;18.67;100.00
66664;BME280;59683;51.428;-1.994;2023-05-12T10:20:02;101507.81;;;18.56;100.00
66664;BME280;59683;51.428;-1.994;2023-05-12T10:22:32;101510.78;;;18.35;100.00
66664;BME280;59683;51.428;-1.994;2023-05-12T10:25:00;101510.28;;;18.67;100.00
66664;BME280;59683;51.428;-1.994;2023-05-12T10:27:27;101514.28;;;18.17;100.00
66664;BME280;59683;51.428;-1.994;2023-05-12T10:29:54;101511.19;;;17.38;100.00
66664;BME280;59683;51.428;-1.994;2023-05-12T10:32:19;101511.31;;;17.46;100.00
66664;BME280;59683;51.428;-1.994;2023-05-12T10:34:45;101511.75;;;17.41;100.00
66664;BME280;59683;51.428;-1.994;2023-05-12T10:37:10;101508.69;;;17.27;100.00
66664;BME280;59683;51.428;-1.994;2023-05-12T10:39:45;101495.53;;;17.90;100.00
66664;BME280;59683;51.428;-1.994;2023-05-12T10:42:11;101505.66;;;19.13;100.00
66664;BME280;59683;51.428;-1.994;2023-05-12T10:44:50;101504.44;;;19.59;100.00
66664;BME280;59683;51.428;-1.994;2023-05-12T10:47:16;101504.31;;;19.35;100.00
66664;BME280;59683;51.428;-1.994;2023-05-12T10:49:41;101504.59;;;20.18;100.00
66664;BME280;59683;51.428;-1.994;2023-05-12T10:52:09;101495.91;;;20.49;100.00
66664;BME280;59683;51.428;-1.994;2023-05-12T10:54:40;101503.03;;;20.82;100.00
66664;BME280;59683;51.428;-1.994;2023-05-12T10:57:18;101498.81;;;20.64;100.00
66664;BME280;59683;51.428;-1.994;2023-05-12T11:00:03;101508.22;;;20.01;100.00
66664;BME280;59683;51.428;-1.994;2023-05-12T11:02:29;101500.16;;;19.14;100.00
66664;BME280;59683;51.428;-1.994;2023-05-12T11:05:00;101505.09;;;18.65;100.00
66664;BME280;59683;51.428;-1.994;2023-05-12T11:07:29;101505.97;;;18.20;100.00
66664;BME280;59683;51.428;-1.994;2023-05-12T11:10:01;101508.13;;;17.80;100.00
66664;BME280;59683;51.428;-1.994;2023-05-12T11:12:29;101517.56;;;17.84;100.00
66664;BME280;59683;51.428;-1.994;2023-05-12T11:14:58;101515.88;;;18.56;100.00
66664;BME280;59683;51.428;-1.994;2023-05-12T11:17:24;101518.59;;;18.46;100.00
66664;BME280;59683;51.428;-1.994;2023-05-12T11:19:50;101515.88;;;18.56;100.00
66664;BME280;59683;51.428;-1.994;2023-05-12T11:22:18;101519.97;;;18.78;100.00
66664;BME280;59683;51.428;-1.994;2023-05-12T11:24:44;101512.47;;;19.25;100.00
66664;BME280;59683;51.428;-1.994;2023-05-12T11:27:15;101518.09;;;19.40;100.00
66664;BME280;59683;51.428;-1.994;2023-05-12T11:29:42;101517.03;;;19.33;100.00
66664;BME280;59683;51.428;-1.994;2023-05-12T11:32:08;101511.81;;;20.18;100.00
66664;BME280;59683;51.428;-1.994;2023-05-12T11:34:35;101511.13;;;20.91;100.00
66664;BME280;59683;51.428;-1.994;2023-05-12T11:37:03;101522.13;;;19.96;100.00
66664;BME280;59683;51.428;-1.994;2023-05-12T11:39:29;101521.06;;;19.81;100.00
66664;BME280;59683;51.428;-1.994;2023-05-12T11:42:05;101515.53;;;19.56;100.00
66664;BME280;59683;51.428;-1.994;2023-05-12T11:44:34;101522.72;;;19.82;100.00
66664;BME280;59683;51.428;-1.994;2023-05-12T11:47:11;101521.34;;;20.12;100.00
66664;BME280;59683;51.428;-1.994;2023-05-12T11:49:56;101523.72;;;19.73;100.00
66664;BME280;59683;51.428;-1.994;2023-05-12T11:52:23;101523.03;;;19.01;100.00
66664;BME280;59683;51.428;-1.994;2023-05-12T11:54:56;101522.34;;;18.81;100.00
66664;BME280;59683;51.428;-1.994;2023-05-12T11:57:27;101523.84;;;18.65;100.00
66664;BME280;59683;51.428;-1.994;2023-05-12T12:00:11;101518.91;;;18.88;100.00
66664;BME280;59683;51.428;-1.994;2023-05-12T12:02:36;101517.38;;;18.86;100.00
66664;BME280;59683;51.428;-1.994;2023-05-12T12:05:04;101525.13;;;18.43;100.00
66664;BME280;59683;51.428;-1.994;2023-05-12T12:07:33;101530.00;;;18.30;100.00
66664;BME280;59683;51.428;-1.994;2023-05-12T12:10:16;101525.75;;;18.10;100.00
66664;BME280;59683;51.428;-1.994;2023-05-12T12:12:42;101515.72;;;18.12;100.00
66664;BME280;59683;51.428;-1.994;2023-05-12T12:15:09;101530.41;;;18.53;100.00
66664;BME280;59683;51.428;-1.994;2023-05-12T12:17:35;101529.66;;;18.15;100.00
66664;BME280;59683;51.428;-1.994;2023-05-12T12:20:00;101527.28;;;17.75;100.00
66664;BME280;59683;51.428;-1.994;2023-05-12T12:22:26;101540.19;;;17.42;100.00
66664;BME280;59683;51.428;-1.994;2023-05-12T12:24:51;101538.25;;;17.35;100.00
66664;BME280;59683;51.428;-1.994;2023-05-12T12:27:17;101531.94;;;17.63;100.00
66664;BME280;59683;51.428;-1.994;2023-05-12T12:29:42;101524.63;;;18.30;100.00
66664;BME280;59683;51.428;-1.994;2023-05-12T12:32:08;101529.94;;;18.85;100.00
66664;BME280;59683;51.428;-1.994;2023-05-12T12:34:33;101519.63;;;18.63;100.00
66664;BME280;59683;51.428;-1.994;2023-05-12T12:36:59;101526.00;;;18.80;100.00
66664;BME280;59683;51.428;-1.994;2023-05-12T12:39:24;101522.25;;;18.27;100.00
66664;BME280;59683;51.428;-1.994;2023-05-12T12:41:50;101531.38;;;17.69;100.00
66664;BME280;59683;51.428;-1.994;2023-05-12T12:44:15;101525.00;;;18.17;100.00
66664;BME280;59683;51.428;-1.994;2023-05-12T12:46:41;101523.22;;;18.54;100.00
66664;BME280;59683;51.428;-1.994;2023-05-12T12:49:07;101524.47;;;19.39;100.00
66664;BME280;59683;51.428;-1.994;2023-05-12T12:51:32;101525.94;;;19.07;100.00
66664;BME280;59683;51.428;-1.994;2023-05-12T12:53:58;101527.31;;;18.76;100.00
66664;BME280;59683;51.428;-1.994;2023-05-12T12:56:23;101535.78;;;18.53;100.00
66664;BME280;59683;51.428;-1.994;2023-05-12T12:58:50;101536.59;;;17.81;100.00
66664;BME280;59683;51.428;-1.994;2023-05-12T13:01:15;101523.03;;;18.37;100.00
66664;BME280;59683;51.428;-1.994;2023-05-12T13:03:42;101515.88;;;19.09;100.00
66664;BME280;59683;51.428;-1.994;2023-05-12T13:06:07;101520.97;;;19.64;100.00
66664;BME280;59683;51.428;-1.994;2023-05-12T13:08:33;101517.69;;;19.27;100.00
66664;BME280;59683;51.428;-1.994;2023-05-12T13:10:59;101526.94;;;18.88;100.00
66664;BME280;59683;51.428;-1.994;2023-05-12T13:13:25;101526.31;;;18.77;100.00
66664;BME280;59683;51.428;-1.994;2023-05-12T13:15:51;101524.44;;;18.41;100.00
66664;BME280;59683;51.428;-1.994;2023-05-12T13:18:17;101521.38;;;18.36;100.00
66664;BME280;59683;51.428;-1.994;2023-05-12T13:20:42;101518.09;;;18.15;100.00
66664;BME280;59683;51.428;-1.994;2023-05-12T13:23:08;101526.75;;;17.71;100.00
66664;BME280;59683;51.428;-1.994;2023-05-12T13:25:33;101523.13;;;17.53;100.00
66664;BME280;59683;51.428;-1.994;2023-05-12T13:27:58;101515.91;;;16.87;100.00
66664;BME280;59683;51.428;-1.994;2023-05-12T13:30:24;101520.69;;;16.93;100.00
66664;BME280;59683;51.428;-1.994;2023-05-12T13:32:50;101519.66;;;16.65;100.00
66664;BME280;59683;51.428;-1.994;2023-05-12T13:35:15;101517.63;;;16.19;100.00
66664;BME280;59683;51.428;-1.994;2023-05-12T13:37:41;101513.19;;;15.68;100.00
66664;BME280;59683;51.428;-1.994;2023-05-12T13:40:06;101510.66;;;15.45;100.00
66664;BME280;59683;51.428;-1.994;2023-05-12T13:42:32;101512.63;;;15.43;100.00
66664;BME280;59683;51.428;-1.994;2023-05-12T13:44:57;101512.81;;;15.51;100.00
66664;BME280;59683;51.428;-1.994;2023-05-12T13:47:23;101515.59;;;15.71;100.00
66664;BME280;59683;51.428;-1.994;2023-05-12T13:49:48;101515.97;;;15.87;100.00
66664;BME280;59683;51.428;-1.994;2023-05-12T13:52:14;101508.81;;;15.88;100.00
66664;BME280;59683;51.428;-1.994;2023-05-12T13:54:40;101515.47;;;16.03;100.00
66664;BME280;59683;51.428;-1.994;2023-05-12T13:57:05;101504.25;;;16.19;100.00
66664;BME280;59683;51.428;-1.994;2023-05-12T13:59:31;101509.75;;;16.27;100.00
66664;BME280;59683;51.428;-1.994;2023-05-12T14:01:57;101511.75;;;16.54;100.00
66664;BME280;59683;51.428;-1.994;2023-05-12T14:04:23;101514.09;;;16.78;100.00
66664;BME280;59683;51.428;-1.994;2023-05-12T14:06:49;101509.25;;;17.20;100.00
66664;BME280;59683;51.428;-1.994;2023-05-12T14:09:14;101505.03;;;17.18;100.00
66664;BME280;59683;51.428;-1.994;2023-05-12T14:11:39;101512.03;;;17.29;100.00
66664;BME280;59683;51.428;-1.994;2023-05-12T14:14:05;101516.63;;;17.56;100.00
66664;BME280;59683;51.428;-1.994;2023-05-12T14:16:31;101506.22;;;17.90;100.00
66664;BME280;59683;51.428;-1.994;2023-05-12T14:18:56;101504.66;;;17.97;100.00
66664;BME280;59683;51.428;-1.994;2023-05-12T14:21:23;101506.63;;;18.23;100.00
66664;BME280;59683;51.428;-1.994;2023-05-12T14:23:49;101513.03;;;18.39;100.00
66664;BME280;59683;51.428;-1.994;2023-05-12T14:26:14;101507.50;;;18.41;100.00
66664;BME280;59683;51.428;-1.994;2023-05-12T14:28:40;101508.63;;;17.93;100.00
66664;BME280;59683;51.428;-1.994;2023-05-12T14:31:05;101510.09;;;17.31;100.00
66664;BME280;59683;51.428;-1.994;2023-05-12T14:33:31;101511.91;;;16.72;100.00
66664;BME280;59683;51.428;-1.994;2023-05-12T14:35:57;101507.03;;;16.08;100.00
66664;BME280;59683;51.428;-1.994;2023-05-12T14:38:23;101508.88;;;15.46;100.00
66664;BME280;59683;51.428;-1.994;2023-05-12T14:40:48;101515.06;;;15.04;100.00
66664;BME280;59683;51.428;-1.994;2023-05-12T14:43:14;101522.38;;;14.91;100.00
66664;BME280;59683;51.428;-1.994;2023-05-12T14:45:40;101515.03;;;14.84;100.00
66664;BME280;59683;51.428;-1.994;2023-05-12T14:48:05;101524.31;;;14.89;100.00
66664;BME280;59683;51.428;-1.994;2023-05-12T14:50:31;101520.84;;;15.10;100.00
66664;BME280;59683;51.428;-1.994;2023-05-12T14:52:56;101525.44;;;15.28;100.00
66664;BME280;59683;51.428;-1.994;2023-05-12T14:55:22;101524.88;;;15.46;100.00
66664;BME280;59683;51.428;-1.994;2023-05-12T14:57:47;101523.81;;;15.58;100.00
66664;BME280;59683;51.428;-1.994;2023-05-12T15:00:14;101524.19;;;15.74;100.00
66664;BME280;59683;51.428;-1.994;2023-05-12T15:02:41;101526.44;;;15.69;100.00
66664;BME280;59683;51.428;-1.994;2023-05-12T15:05:08;101520.81;;;15.30;100.00
66664;BME280;59683;51.428;-1.994;2023-05-12T15:07:34;101518.94;;;15.21;100.00
66664;BME280;59683;51.428;-1.994;2023-05-12T15:10:00;101522.00;;;15.17;100.00
66664;BME280;59683;51.428;-1.994;2023-05-12T15:12:26;101513.63;;;15.42;100.00
66664;BME280;59683;51.428;-1.994;2023-05-12T15:14:51;101515.50;;;15.72;100.00
66664;BME280;59683;51.428;-1.994;2023-05-12T15:17:17;101525.75;;;15.77;100.00
66664;BME280;59683;51.428;-1.994;2023-05-12T15:19:43;101521.00;;;16.31;100.00
66664;BME280;59683;51.428;-1.994;2023-05-12T15:22:09;101530.06;;;16.49;100.00
66664;BME280;59683;51.428;-1.994;2023-05-12T15:24:34;101530.81;;;16.90;100.00
66664;BME280;59683;51.428;-1.994;2023-05-12T15:26:59;101519.44;;;16.78;100.00
66664;BME280;59683;51.428;-1.994;2023-05-12T15:29:25;101525.88;;;17.14;100.00
66664;BME280;59683;51.428;-1.994;2023-05-12T15:31:51;101525.66;;;17.45;100.00
66664;BME280;59683;51.428;-1.994;2023-05-12T15:34:16;101523.78;;;17.65;100.00
66664;BME280;59683;51.428;-1.994;2023-05-12T15:36:42;101533.41;;;17.48;100.00
66664;BME280;59683;51.428;-1.994;2023-05-12T15:39:10;101529.38;;;17.34;100.00
66664;BME280;59683;51.428;-1.994;2023-05-12T15:41:36;101531.53;;;17.11;100.00
66664;BME280;59683;51.428;-1.994;2023-05-12T15:44:01;101526.16;;;17.21;100.00
66664;BME280;59683;51.428;-1.994;2023-05-12T15:46:27;101521.75;;;16.62;100.00
66664;BME280;59683;51.428;-1.994;2023-05-12T15:48:52;101532.00;;;16.37;100.00
66664;BME280;59683;51.428;-1.994;2023-05-12T15:51:18;101531.75;;;16.10;100.00
66664;BME280;59683;51.428;-1.994;2023-05-12T15:53:43;101531.41;;;15.84;100.00
66664;BME280;59683;51.428;-1.994;2023-05-12T15:56:09;101519.81;;;15.52;100.00
66664;BME280;59683;51.428;-1.994;2023-05-12T15:58:35;101523.88;;;15.26;100.00
66664;BME280;59683;51.428;-1.994;2023-05-12T16:01:00;101520.78;;;15.21;100.00
66664;BME280;59683;51.428;-1.994;2023-05-12T16:03:26;101520.44;;;15.35;100.00
66664;BME280;59683;51.428;-1.994;2023-05-12T16:05:51;101522.13;;;15.36;100.00
66664;BME280;59683;51.428;-1.994;2023-05-12T16:08:17;101523.03;;;15.46;100.00
66664;BME280;59683;51.428;-1.994;2023-05-12T16:10:42;101528.16;;;15.59;100.00
66664;BME280;59683;51.428;-1.994;2023-05-12T16:13:08;101524.88;;;15.46;100.00
66664;BME280;59683;51.428;-1.994;2023-05-12T16:15:34;101515.63;;;15.50;100.00
66664;BME280;59683;51.428;-1.994;2023-05-12T16:17:59;101517.47;;;15.59;100.00
66664;BME280;59683;51.428;-1.994;2023-05-12T16:20:25;101521.13;;;15.79;100.00
66664;BME280;59683;51.428;-1.994;2023-05-12T16:22:50;101517.97;;;15.95;100.00
66664;BME280;59683;51.428;-1.994;2023-05-12T16:25:20;101516.94;;;15.86;100.00
66664;BME280;59683;51.428;-1.994;2023-05-12T16:27:45;101531.88;;;15.68;100.00
66664;BME280;59683;51.428;-1.994;2023-05-12T16:30:11;101523.16;;;15.45;100.00
66664;BME280;59683;51.428;-1.994;2023-05-12T16:32:37;101527.31;;;15.38;100.00
66664;BME280;59683;51.428;-1.994;2023-05-12T16:35:04;101524.53;;;15.18;100.00
66664;BME280;59683;51.428;-1.994;2023-05-12T16:37:30;101524.53;;;14.97;100.00
66664;BME280;59683;51.428;-1.994;2023-05-12T16:39:56;101532.09;;;14.81;100.00
66664;BME280;59683;51.428;-1.994;2023-05-12T16:42:22;101544.50;;;14.71;100.00
66664;BME280;59683;51.428;-1.994;2023-05-12T16:44:47;101538.94;;;14.63;100.00
66664;BME280;59683;51.428;-1.994;2023-05-12T16:47:12;101543.44;;;14.62;100.00
66664;BME280;59683;51.428;-1.994;2023-05-12T16:49:38;101537.63;;;14.57;100.00
66664;BME280;59683;51.428;-1.994;2023-05-12T16:52:03;101548.16;;;14.58;100.00
66664;BME280;59683;51.428;-1.994;2023-05-12T16:54:32;101543.56;;;14.61;100.00
66664;BME280;59683;51.428;-1.994;2023-05-12T16:56:57;101547.38;;;14.79;100.00
66664;BME280;59683;51.428;-1.994;2023-05-12T16:59:25;101542.66;;;14.82;100.00
66664;BME280;59683;51.428;-1.994;2023-05-12T17:01:51;101540.88;;;14.72;100.00
66664;BME280;59683;51.428;-1.994;2023-05-12T17:04:16;101541.59;;;14.63;100.00
66664;BME280;59683;51.428;-1.994;2023-05-12T17:06:42;101548.06;;;14.49;100.00
66664;BME280;59683;51.428;-1.994;2023-05-12T17:09:07;101554.09;;;14.40;100.00
66664;BME280;59683;51.428;-1.994;2023-05-12T17:11:32;101550.25;;;14.32;100.00
66664;BME280;59683;51.428;-1.994;2023-05-12T17:13:58;101540.19;;;14.36;100.00
66664;BME280;59683;51.428;-1.994;2023-05-12T17:16:25;101547.56;;;14.44;100.00
66664;BME280;59683;51.428;-1.994;2023-05-12T17:18:50;101545.19;;;14.52;100.00
66664;BME280;59683;51.428;-1.994;2023-05-12T17:21:16;101555.84;;;14.52;100.00
66664;BME280;59683;51.428;-1.994;2023-05-12T17:23:41;101545.78;;;14.44;100.00
66664;BME280;59683;51.428;-1.994;2023-05-12T17:26:07;101546.88;;;14.30;100.00
66664;BME280;59683;51.428;-1.994;2023-05-12T17:28:32;101556.53;;;14.31;100.00
66664;BME280;59683;51.428;-1.994;2023-05-12T17:30:57;101551.75;;;14.14;100.00
66664;BME280;59683;51.428;-1.994;2023-05-12T17:33:25;101564.56;;;13.87;100.00
66664;BME280;59683;51.428;-1.994;2023-05-12T17:35:50;101559.00;;;13.78;100.00
66664;BME280;59683;51.428;-1.994;2023-05-12T17:38:17;101566.59;;;13.72;100.00
66664;BME280;59683;51.428;-1.994;2023-05-12T17:40:44;101568.63;;;13.57;100.00
66664;BME280;59683;51.428;-1.994;2023-05-12T17:43:09;101573.06;;;13.45;100.00
66664;BME280;59683;51.428;-1.994;2023-05-12T17:45:35;101555.88;;;13.38;100.00
66664;BME280;59683;51.428;-1.994;2023-05-12T17:48:01;101572.44;;;13.30;100.00
66664;BME280;59683;51.428;-1.994;2023-05-12T17:50:27;101574.78;;;13.22;100.00
66664;BME280;59683;51.428;-1.994;2023-05-12T17:52:52;101585.56;;;13.21;100.00
66664;BME280;59683;51.428;-1.994;2023-05-12T17:55:18;101586.22;;;13.24;100.00
66664;BME280;59683;51.428;-1.994;2023-05-12T17:57:44;101592.97;;;13.28;100.00
66664;BME280;59683;51.428;-1.994;2023-05-12T18:00:09;101584.81;;;13.43;100.00
66664;BME280;59683;51.428;-1.994;2023-05-12T18:02:36;101584.13;;;13.63;100.00
66664;BME280;59683;51.428;-1.994;2023-05-12T18:05:03;101603.25;;;13.79;100.00
66664;BME280;59683;51.428;-1.994;2023-05-12T18:07:29;101594.06;;;13.95;100.00
66664;BME280;59683;51.428;-1.994;2023-05-12T18:09:54;101591.66;;;13.92;100.00
66664;BME280;59683;51.428;-1.994;2023-05-12T18:12:20;101604.00;;;14.04;100.00
66664;BME280;59683;51.428;-1.994;2023-05-12T18:14:45;101602.19;;;14.04;100.00
66664;BME280;59683;51.428;-1.994;2023-05-12T18:17:11;101601.19;;;13.83;100.00
66664;BME280;59683;51.428;-1.994;2023-05-12T18:19:36;101600.59;;;13.79;100.00
66664;BME280;59683;51.428;-1.994;2023-05-12T18:22:02;101604.22;;;13.78;100.00
66664;BME280;59683;51.428;-1.994;2023-05-12T18:24:27;101612.63;;;13.61;100.00
66664;BME280;59683;51.428;-1.994;2023-05-12T18:26:52;101612.50;;;13.51;100.00
66664;BME280;59683;51.428;-1.994;2023-05-12T18:29:18;101594.94;;;13.38;100.00
66664;BME280;59683;51.428;-1.994;2023-05-12T18:31:43;101611.81;;;13.25;100.00
66664;BME280;59683;51.428;-1.994;2023-05-12T18:34:08;101615.69;;;13.08;100.00
66664;BME280;59683;51.428;-1.994;2023-05-12T18:36:34;101609.25;;;13.00;100.00
66664;BME280;59683;51.428;-1.994;2023-05-12T18:39:00;101614.72;;;12.85;100.00
66664;BME280;59683;51.428;-1.994;2023-05-12T18:41:25;101621.56;;;12.77;100.00
66664;BME280;59683;51.428;-1.994;2023-05-12T18:43:51;101628.41;;;12.68;100.00
66664;BME280;59683;51.428;-1.994;2023-05-12T18:46:17;101626.06;;;12.63;100.00
66664;BME280;59683;51.428;-1.994;2023-05-12T18:48:42;101624.50;;;12.61;100.00
66664;BME280;59683;51.428;-1.994;2023-05-12T18:51:08;101624.72;;;12.58;100.00
66664;BME280;59683;51.428;-1.994;2023-05-12T18:53:33;101634.81;;;12.53;100.00
66664;BME280;59683;51.428;-1.994;2023-05-12T18:55:59;101628.03;;;12.49;100.00
66664;BME280;59683;51.428;-1.994;2023-05-12T18:58:24;101636.09;;;12.47;100.00